createdAt,value
2018-06-24T00:02:52.257Z,3.00
2018-06-24T00:05:56.648Z,3.57
2018-06-24T00:09:01.012Z,3.03
2018-06-24T00:12:05.371Z,4.10
2018-06-24T00:15:09.524Z,3.27
2018-06-24T00:18:13.911Z,2.90
2018-06-24T00:21:18.306Z,2.50
2018-06-24T00:24:22.717Z,3.00
2018-06-24T00:27:27.161Z,3.07
2018-06-24T00:30:31.545Z,3.00
2018-06-24T00:33:35.918Z,3.57
2018-06-24T00:36:40.293Z,3.30
2018-06-24T00:39:44.654Z,3.30
2018-06-24T00:42:49.037Z,3.93
2018-06-24T00:45:53.412Z,4.00
2018-06-24T00:48:57.777Z,4.67
2018-06-24T00:52:02.141Z,4.13
2018-06-24T00:55:06.525Z,3.97
2018-06-24T00:58:10.890Z,4.30
2018-06-24T01:01:15.264Z,4.20
2018-06-24T01:04:20.473Z,4.03
2018-06-24T01:07:24.849Z,4.60
2018-06-24T01:10:29.209Z,4.70
2018-06-24T01:13:33.320Z,4.50
2018-06-24T01:16:37.725Z,4.17
2018-06-24T01:19:42.073Z,5.07
2018-06-24T01:22:46.478Z,4.57
2018-06-24T01:25:50.853Z,3.83
2018-06-24T01:28:55.216Z,4.67
2018-06-24T01:31:59.581Z,4.90
2018-06-24T01:35:04.047Z,4.00
2018-06-24T01:38:08.481Z,4.63
2018-06-24T01:41:12.845Z,3.97
2018-06-24T01:44:17.204Z,4.57
2018-06-24T01:47:21.572Z,3.87
2018-06-24T01:50:25.936Z,4.07
2018-06-24T01:53:30.284Z,4.47
2018-06-24T01:56:34.658Z,5.17
2018-06-24T01:59:39.064Z,4.13
2018-06-24T02:02:43.498Z,3.80
2018-06-24T02:05:47.877Z,3.83
2018-06-24T02:08:52.225Z,4.53
2018-06-24T02:11:56.585Z,4.23
2018-06-24T02:15:00.929Z,4.73
2018-06-24T02:18:05.405Z,4.57
2018-06-24T02:21:09.776Z,4.77
2018-06-24T02:24:14.144Z,5.03
2018-06-24T02:27:18.489Z,4.80
2018-06-24T02:30:22.866Z,3.83
2018-06-24T02:33:27.252Z,4.20
2018-06-24T02:36:31.628Z,4.40
2018-06-24T02:39:36.010Z,4.10
2018-06-24T02:42:40.394Z,4.23
2018-06-24T02:45:44.806Z,5.10
2018-06-24T02:48:49.163Z,4.43
2018-06-24T02:51:53.582Z,4.17
2018-06-24T02:54:57.937Z,5.07
2018-06-24T02:58:02.306Z,5.03
2018-06-24T03:01:06.674Z,5.37
2018-06-24T03:04:11.058Z,6.00
2018-06-24T03:07:15.433Z,5.10
2018-06-24T03:10:19.838Z,5.23
2018-06-24T03:13:24.220Z,4.80
2018-06-24T03:16:28.585Z,4.90
2018-06-24T03:19:32.958Z,4.40
2018-06-24T03:22:37.352Z,4.67
2018-06-24T03:25:41.703Z,3.80
2018-06-24T03:28:46.069Z,4.97
2018-06-24T03:31:50.517Z,4.30
2018-06-24T03:34:54.925Z,3.93
2018-06-24T03:37:59.289Z,4.53
2018-06-24T03:41:03.652Z,4.20
2018-06-24T03:44:08.338Z,4.70
2018-06-24T03:47:12.713Z,5.03
2018-06-24T03:50:17.093Z,4.37
2018-06-24T03:53:21.464Z,3.57
2018-06-24T03:56:25.922Z,3.23
2018-06-24T03:59:30.265Z,3.03
2018-06-24T04:02:34.626Z,2.50
2018-06-24T04:05:38.960Z,2.27
2018-06-24T04:08:43.330Z,2.37
2018-06-24T04:11:47.722Z,2.30
2018-06-24T04:14:52.129Z,2.30
2018-06-24T04:17:56.472Z,2.30
2018-06-24T04:21:00.841Z,2.17
2018-06-24T04:24:05.236Z,2.27
2018-06-24T04:27:09.601Z,2.20
2018-06-24T04:30:13.963Z,2.03
2018-06-24T04:33:18.369Z,1.77
2018-06-24T04:36:22.779Z,2.33
2018-06-24T04:39:27.177Z,2.03
2018-06-24T04:42:31.546Z,1.80
2018-06-24T04:45:35.884Z,2.23
2018-06-24T04:48:40.265Z,1.80
2018-06-24T04:51:44.729Z,2.30
2018-06-24T04:54:49.018Z,1.70
2018-06-24T04:57:53.412Z,2.27
2018-06-24T05:00:57.792Z,1.60
2018-06-24T05:04:02.165Z,1.57
2018-06-24T05:07:06.521Z,1.60
2018-06-24T05:10:10.880Z,1.63
2018-06-24T05:13:15.284Z,1.70
2018-06-24T05:16:19.629Z,1.73
2018-06-24T05:19:24.010Z,1.97
2018-06-24T05:22:28.361Z,1.67
2018-06-24T05:25:32.725Z,2.17
2018-06-24T05:28:37.088Z,1.83
2018-06-24T05:31:41.446Z,1.73
2018-06-24T05:34:45.819Z,1.40
2018-06-24T05:37:50.203Z,1.80
2018-06-24T05:40:54.549Z,1.73
2018-06-24T05:43:58.908Z,1.40
2018-06-24T05:47:03.288Z,1.60
2018-06-24T05:50:07.664Z,1.63
2018-06-24T05:53:12.033Z,1.57
2018-06-24T05:56:16.421Z,1.70
2018-06-24T05:59:20.794Z,1.50
2018-06-24T06:02:25.178Z,1.40
2018-06-24T06:05:29.549Z,1.40
2018-06-24T06:08:33.948Z,1.13
2018-06-24T06:11:38.400Z,1.60
2018-06-24T06:14:42.890Z,1.40
2018-06-24T06:17:47.257Z,1.63
2018-06-24T06:20:51.612Z,1.40
2018-06-24T06:23:55.968Z,1.40
2018-06-24T06:27:00.344Z,1.20
2018-06-24T06:30:05.188Z,1.30
2018-06-24T06:33:09.570Z,1.57
2018-06-24T06:36:13.986Z,1.47
2018-06-24T06:39:18.353Z,1.43
2018-06-24T06:42:22.709Z,1.30
2018-06-24T06:45:27.166Z,1.67
2018-06-24T06:48:31.504Z,1.40
2018-06-24T06:51:35.868Z,1.20
2018-06-24T06:54:40.240Z,1.77
2018-06-24T06:57:44.644Z,2.40
2018-06-24T07:00:49.089Z,2.37
2018-06-24T07:03:53.509Z,2.80
2018-06-24T07:06:57.966Z,3.10
2018-06-24T07:10:02.338Z,3.50
2018-06-24T07:13:06.829Z,2.60
2018-06-24T07:16:11.201Z,2.40
2018-06-24T07:19:15.605Z,2.50
2018-06-24T07:22:20.031Z,2.30
2018-06-24T07:25:24.434Z,2.43
2018-06-24T07:28:28.809Z,2.60
2018-06-24T07:31:33.172Z,2.20
2018-06-24T07:34:37.522Z,2.40
2018-06-24T07:37:41.901Z,2.43
2018-06-24T07:40:46.249Z,2.60
2018-06-24T07:43:50.718Z,2.50
2018-06-24T07:46:55.113Z,2.33
2018-06-24T07:49:59.521Z,2.70
2018-06-24T07:53:04.437Z,2.37
2018-06-24T07:56:08.819Z,2.37
2018-06-24T07:59:13.172Z,2.47
2018-06-24T08:02:17.617Z,1.80
2018-06-24T08:05:22.101Z,1.87
2018-06-24T08:08:26.365Z,1.93
2018-06-24T08:11:30.750Z,1.73
2018-06-24T08:14:35.120Z,1.37
2018-06-24T08:17:39.510Z,1.63
2018-06-24T08:20:43.876Z,1.20
2018-06-24T08:23:48.320Z,1.80
2018-06-24T08:26:53.169Z,1.57
2018-06-24T08:29:57.582Z,1.50
2018-06-24T08:33:02.289Z,1.43
2018-06-24T08:36:06.885Z,1.30
2018-06-24T08:39:12.091Z,1.23
2018-06-24T08:42:16.509Z,1.33
2018-06-24T08:45:20.954Z,0.90
2018-06-24T08:48:25.409Z,0.80
2018-06-24T08:51:29.789Z,1.03
2018-06-24T08:54:35.646Z,0.90
2018-06-24T08:57:40.321Z,0.83
2018-06-24T09:00:45.052Z,1.40
2018-06-24T09:03:49.405Z,1.00
2018-06-24T09:06:55.301Z,1.10
2018-06-24T09:09:59.675Z,1.40
2018-06-24T09:13:04.084Z,1.20
2018-06-24T09:16:11.086Z,1.30
2018-06-24T09:19:25.367Z,1.80
2018-06-24T09:22:36.424Z,1.30
2018-06-24T09:25:40.909Z,1.33
2018-06-24T09:28:45.305Z,1.90
2018-06-24T09:31:49.672Z,1.60
2018-06-24T09:34:54.080Z,1.43
2018-06-24T09:37:58.479Z,1.57
2018-06-24T09:41:02.892Z,1.33
2018-06-24T09:44:07.385Z,1.43
2018-06-24T09:47:11.808Z,1.47
2018-06-24T09:50:16.204Z,1.20
2018-06-24T09:53:21.014Z,1.23
2018-06-24T09:56:26.521Z,1.40
2018-06-24T09:59:34.757Z,1.27
2018-06-24T10:02:45.109Z,1.20
2018-06-24T10:05:51.323Z,1.30
2018-06-24T10:08:55.917Z,1.70
2018-06-24T10:12:00.286Z,2.00
2018-06-24T10:15:04.710Z,1.80
2018-06-24T10:18:09.164Z,2.00
2018-06-24T10:21:13.532Z,2.07
2018-06-24T10:24:17.900Z,2.90
2018-06-24T10:27:22.273Z,1.80
2018-06-24T10:30:26.614Z,1.63
2018-06-24T10:33:31.013Z,1.87
2018-06-24T10:36:35.389Z,1.70
2018-06-24T10:39:39.773Z,1.63
2018-06-24T10:42:44.144Z,2.13
2018-06-24T10:45:48.570Z,1.87
2018-06-24T10:48:53.003Z,1.80
2018-06-24T10:52:05.052Z,2.10
2018-06-24T10:55:09.729Z,2.00
2018-06-24T10:58:14.152Z,2.67
2018-06-24T11:01:18.599Z,2.07
2018-06-24T11:04:23.113Z,2.93
2018-06-24T11:07:27.488Z,2.50
2018-06-24T11:10:31.913Z,2.40
2018-06-24T11:13:36.296Z,2.23
2018-06-24T11:16:40.686Z,2.30
2018-06-24T11:19:45.343Z,1.80
2018-06-24T11:22:49.765Z,2.27
2018-06-24T11:25:54.200Z,2.23
2018-06-24T11:28:58.581Z,2.00
2018-06-24T11:32:03.377Z,1.60
2018-06-24T11:35:07.826Z,1.60
2018-06-24T11:38:12.197Z,1.73
2018-06-24T11:41:16.561Z,2.03
2018-06-24T11:44:20.933Z,2.03
2018-06-24T11:47:25.337Z,2.20
2018-06-24T11:50:29.701Z,1.93
2018-06-24T11:53:34.062Z,2.07
2018-06-24T11:56:38.440Z,2.17
2018-06-24T11:59:42.828Z,2.43
2018-06-24T12:02:47.290Z,2.60
2018-06-24T12:05:51.620Z,2.30
2018-06-24T12:08:55.980Z,2.47
2018-06-24T12:12:00.381Z,2.37
2018-06-24T12:15:04.837Z,2.43
2018-06-24T12:18:09.229Z,2.60
2018-06-24T12:21:13.596Z,2.50
2018-06-24T12:24:17.983Z,2.57
2018-06-24T12:27:22.349Z,2.53
2018-06-24T12:30:26.737Z,2.63
2018-06-24T12:33:31.104Z,2.30
2018-06-24T12:36:40.020Z,3.17
2018-06-24T12:39:44.396Z,2.30
2018-06-24T12:42:48.848Z,2.80
2018-06-24T12:45:53.205Z,2.63
2018-06-24T12:48:57.578Z,2.97
2018-06-24T12:52:01.996Z,2.87
2018-06-24T12:55:06.423Z,2.57
2018-06-24T12:58:10.849Z,2.63
2018-06-24T13:01:15.180Z,2.83
2018-06-24T13:04:19.561Z,2.67
2018-06-24T13:07:23.934Z,2.30
2018-06-24T13:10:28.420Z,2.60
2018-06-24T13:13:32.778Z,2.53
2018-06-24T13:16:37.195Z,2.63
2018-06-24T13:19:41.549Z,2.57
2018-06-24T13:22:45.965Z,2.73
2018-06-24T13:25:50.353Z,2.73
2018-06-24T13:28:54.738Z,2.40
2018-06-24T13:31:59.155Z,3.00
2018-06-24T13:35:03.517Z,3.03
2018-06-24T13:38:07.901Z,3.50
2018-06-24T13:41:12.277Z,2.50
2018-06-24T13:44:16.641Z,2.27
2018-06-24T13:47:21.009Z,2.80
2018-06-24T13:50:25.372Z,2.20
2018-06-24T13:53:29.742Z,2.43
2018-06-24T13:56:34.106Z,2.23
2018-06-24T13:59:38.473Z,2.47
2018-06-24T14:02:42.853Z,2.13
2018-06-24T14:05:47.368Z,2.20
2018-06-24T14:08:51.749Z,2.53
2018-06-24T14:11:56.153Z,2.57
2018-06-24T14:15:00.541Z,2.80
2018-06-24T14:18:04.921Z,3.03
2018-06-24T14:21:09.325Z,2.63
2018-06-24T14:24:13.708Z,2.63
2018-06-24T14:27:18.144Z,2.50
2018-06-24T14:30:22.573Z,3.17
2018-06-24T14:33:26.954Z,3.27
2018-06-24T14:36:31.331Z,2.57
2018-06-24T14:39:35.725Z,2.63
2018-06-24T14:42:40.124Z,2.67
2018-06-24T14:45:44.518Z,2.50
2018-06-24T14:48:48.861Z,2.23
2018-06-24T14:51:53.265Z,2.77
2018-06-24T14:54:57.639Z,2.73
2018-06-24T14:58:02.040Z,2.90
2018-06-24T15:01:06.433Z,2.37
2018-06-24T15:04:10.821Z,3.13
2018-06-24T15:07:15.182Z,2.73
2018-06-24T15:10:19.560Z,2.70
2018-06-24T15:13:24.089Z,2.63
2018-06-24T15:16:28.468Z,2.40
2018-06-24T15:19:32.878Z,2.70
2018-06-24T15:22:37.293Z,3.00
2018-06-24T15:25:41.706Z,3.20
2018-06-24T15:28:46.646Z,2.90
2018-06-24T15:31:51.022Z,2.20
2018-06-24T15:34:55.137Z,2.30
2018-06-24T15:37:59.514Z,2.83
2018-06-24T15:41:03.908Z,3.10
2018-06-24T15:44:08.368Z,2.33
2018-06-24T15:47:12.922Z,2.10
2018-06-24T15:50:17.337Z,2.10
2018-06-24T15:53:21.729Z,2.10
2018-06-24T15:56:26.109Z,2.10
2018-06-24T15:59:30.477Z,2.50
2018-06-24T16:02:34.846Z,2.07
2018-06-24T16:05:39.335Z,2.60
2018-06-24T16:08:43.696Z,2.17
2018-06-24T16:11:48.081Z,2.40
2018-06-24T16:14:52.462Z,2.57
2018-06-24T16:17:56.841Z,2.47
2018-06-24T16:21:01.275Z,2.30
2018-06-24T16:24:05.437Z,2.23
2018-06-24T16:27:09.937Z,2.70
2018-06-24T16:30:14.334Z,2.67
2018-06-24T16:33:18.747Z,2.90
2018-06-24T16:36:23.125Z,2.87
2018-06-24T16:39:27.620Z,2.57
2018-06-24T16:42:32.006Z,2.40
2018-06-24T16:45:36.417Z,2.77
2018-06-24T16:48:41.039Z,2.73
2018-06-24T16:51:47.746Z,2.80
2018-06-24T16:54:52.148Z,3.00
2018-06-24T16:57:56.569Z,2.57
2018-06-24T17:01:00.972Z,2.10
2018-06-24T17:04:05.457Z,2.20
2018-06-24T17:07:09.857Z,2.80
2018-06-24T17:10:14.236Z,1.97
2018-06-24T17:13:18.606Z,2.60
2018-06-24T17:16:23.064Z,2.10
2018-06-24T17:19:27.441Z,2.33
2018-06-24T17:22:31.817Z,2.27
2018-06-24T17:25:36.198Z,2.90
2018-06-24T17:28:40.596Z,2.63
2018-06-24T17:31:45.015Z,2.20
2018-06-24T17:34:49.485Z,2.53
2018-06-24T17:37:53.994Z,2.27
2018-06-24T17:40:58.508Z,2.63
2018-06-24T17:44:02.953Z,2.27
2018-06-24T17:47:07.613Z,1.97
2018-06-24T17:50:11.993Z,2.43
2018-06-24T17:53:16.399Z,2.60
2018-06-24T17:56:20.777Z,2.80
2018-06-24T17:59:25.149Z,2.27
2018-06-24T18:02:29.324Z,2.90
2018-06-24T18:05:33.690Z,2.20
2018-06-24T18:08:38.038Z,2.80
2018-06-24T18:11:42.408Z,2.83
2018-06-24T18:14:46.786Z,2.97
2018-06-24T18:17:51.165Z,2.83
2018-06-24T18:20:55.553Z,3.10
2018-06-24T18:23:59.977Z,3.07
2018-06-24T18:27:04.674Z,2.97
2018-06-24T18:30:09.065Z,3.23
2018-06-24T18:33:13.557Z,2.77
2018-06-24T18:36:17.877Z,2.67
2018-06-24T18:39:22.241Z,2.77
2018-06-24T18:42:26.613Z,3.03
2018-06-24T18:45:31.386Z,2.50
2018-06-24T18:48:35.809Z,3.60
2018-06-24T18:51:40.893Z,3.03
2018-06-24T18:54:45.309Z,3.10
2018-06-24T18:57:49.689Z,3.03
2018-06-24T19:00:54.086Z,3.17
2018-06-24T19:03:58.458Z,3.07
2018-06-24T19:07:02.912Z,3.30
2018-06-24T19:10:07.270Z,2.73
2018-06-24T19:13:11.745Z,4.00
2018-06-24T19:16:16.432Z,3.03
2018-06-24T19:19:20.836Z,3.40
2018-06-24T19:22:25.261Z,3.43
2018-06-24T19:25:29.372Z,3.00
2018-06-24T19:28:33.768Z,2.90
2018-06-24T19:31:38.142Z,3.17
2018-06-24T19:34:42.573Z,3.37
2018-06-24T19:37:46.952Z,3.47
2018-06-24T19:40:51.317Z,3.77
2018-06-24T19:43:55.727Z,4.20
2018-06-24T19:47:02.480Z,4.50
2018-06-24T19:50:06.914Z,3.30
2018-06-24T19:53:11.328Z,3.47
2018-06-24T19:56:15.712Z,3.33
2018-06-24T19:59:20.128Z,3.00
2018-06-24T20:02:24.506Z,4.13
2018-06-24T20:05:28.897Z,3.80
2018-06-24T20:08:33.296Z,3.73
2018-06-24T20:11:37.843Z,3.80
2018-06-24T20:14:42.310Z,3.27
2018-06-24T20:17:46.837Z,3.67
2018-06-24T20:20:51.366Z,3.50
2018-06-24T20:23:55.741Z,3.80
2018-06-24T20:27:00.133Z,4.17
2018-06-24T20:30:05.108Z,4.27
2018-06-24T20:33:09.501Z,3.90
2018-06-24T20:36:13.898Z,4.63
2018-06-24T20:39:18.273Z,4.00
2018-06-24T20:42:23.453Z,4.37
2018-06-24T20:45:27.866Z,3.90
2018-06-24T20:48:32.225Z,3.80
2018-06-24T20:51:36.605Z,3.73
2018-06-24T20:54:40.989Z,4.23
2018-06-24T20:57:45.337Z,3.83
2018-06-24T21:00:49.747Z,4.40
2018-06-24T21:03:54.153Z,4.40
2018-06-24T21:06:58.705Z,3.87
2018-06-24T21:10:03.084Z,3.73
2018-06-24T21:13:07.456Z,3.47
2018-06-24T21:16:11.856Z,3.90
2018-06-24T21:19:16.214Z,3.23
2018-06-24T21:22:20.615Z,3.50
2018-06-24T21:25:25.041Z,4.33
2018-06-24T21:28:29.401Z,4.00
2018-06-24T21:31:33.859Z,4.13
2018-06-24T21:34:38.232Z,4.03
2018-06-24T21:37:42.608Z,4.07
2018-06-24T21:40:46.976Z,3.87
2018-06-24T21:43:51.385Z,4.10
2018-06-24T21:46:55.790Z,4.03
2018-06-24T21:50:00.158Z,4.07
2018-06-24T21:53:04.545Z,4.17
2018-06-24T21:56:08.909Z,4.57
2018-06-24T21:59:13.284Z,4.07
2018-06-24T22:02:17.653Z,4.00
2018-06-24T22:05:22.032Z,3.97
2018-06-24T22:08:26.386Z,4.17
2018-06-24T22:11:30.764Z,3.87
2018-06-24T22:14:34.880Z,4.63
2018-06-24T22:17:39.249Z,3.93
2018-06-24T22:20:43.608Z,3.80
2018-06-24T22:23:47.975Z,4.03
2018-06-24T22:26:52.376Z,4.43
2018-06-24T22:29:56.737Z,3.83
2018-06-24T22:33:01.104Z,4.23
2018-06-24T22:36:05.501Z,4.07
2018-06-24T22:39:11.764Z,3.97
2018-06-24T22:42:16.166Z,4.30
2018-06-24T22:45:20.565Z,4.03
2018-06-24T22:48:24.941Z,3.97
2018-06-24T22:51:29.342Z,3.60
2018-06-24T22:54:33.705Z,4.17
2018-06-24T22:57:38.057Z,4.23
2018-06-24T23:00:42.465Z,4.33
2018-06-24T23:03:46.817Z,3.87
2018-06-24T23:06:51.319Z,3.53
2018-06-24T23:09:55.607Z,4.57
2018-06-24T23:12:59.985Z,4.23
2018-06-24T23:16:04.353Z,4.30
2018-06-24T23:19:08.733Z,3.70
2018-06-24T23:22:13.109Z,3.93
2018-06-24T23:25:17.506Z,3.90
2018-06-24T23:28:21.874Z,4.33
2018-06-24T23:31:26.283Z,4.03
2018-06-24T23:34:30.678Z,4.00
2018-06-24T23:37:35.076Z,3.80
2018-06-24T23:40:39.421Z,4.37
2018-06-24T23:43:43.946Z,4.23
2018-06-24T23:46:48.313Z,4.50
2018-06-24T23:49:52.685Z,3.80
2018-06-24T23:52:57.037Z,3.53
2018-06-24T23:56:01.403Z,4.47
2018-06-24T23:59:05.921Z,3.63
